Nearby METAR Reports

 

KPIA - Peoria, Illinois, USA
Distance from station: SSW 11mi, 18km
Updated: 09/24/2018 2:14pm
Overcast
Overcast
 Wind from E
Wind: E 7 mph , 11 km/h
Temperature: 72°F , 22°C
Dew Point: 63°F , 17°C
Humidity: 73%
Barometer: 29.93 inHg , 1013.5 hPa
Clouds: Overcast
Visibility: 10 miles , 16 km
Cloud details: Few Clouds 2100 ft
Overcast 3100 ft
2018/09/24 19:14 KPIA 241914Z 09006KT 10SM FEW021 OVC031 22/17 A2993 RMK AO2 T02220172
KC75 - Lacon, Illinois, USA
Distance from station: NE 18mi, 30km
Updated: 09/24/2018 2:15pm
Haze, Overcast
Haze, Overcast
 Wind from ESE
Wind: ESE 6 mph , 9 km/h
Temperature: 73°F , 23°C
Dew Point: 61°F , 16°C
Humidity: 65%
Barometer: 29.93 inHg , 1013.5 hPa
Summary: Haze
Clouds: Overcast
Visibility: 3 miles , 5 km
Cloud details: Overcast 2800 ft
2018/09/24 19:15 KC75 241915Z AUTO 12005KT 3SM HZ OVC028 23/16 A2993 RMK AO2 T02260160
 
KGBG - Galesburg, Illinois, USA
Distance from station: W 43mi, 69km
Updated: 09/24/2018 2:15pm
Clear
Clear
 Wind from ESE
Wind: ESE 6 mph , 9 km/h
Temperature: 73°F , 23°C
Dew Point: 63°F , 17°C
Humidity: 69%
Barometer: 29.92 inHg , 1013.2 hPa
Clouds: Clear
Visibility: 10 miles , 16 km
2018/09/24 19:15 KGBG 241915Z AUTO 11005KT 10SM CLR 23/17 A2992 RMK AO2 T02340167
KBMI - Bloomington/Norm, Illinois, USA
Distance from station: ESE 44mi, 71km
Updated: 09/24/2018 1:56pm
Overcast
Overcast
 Wind from ESE
Wind: ESE 6 mph , 9 km/h
Temperature: 70°F , 21°C
Dew Point: 63°F , 17°C
Humidity: 78%
Barometer: 29.97 inHg , 1014.9 hPa
Clouds: Overcast
Visibility: 10 miles , 16 km
Cloud details: Overcast 2300 ft
2018/09/24 18:56 KBMI 241856Z 11005KT 10SM OVC023 21/17 A2997 RMK AO2 SLP169 T02110172
 
KVYS - Peru, Illinois, USA
Distance from station: NNE 44mi, 71km
Updated: 09/24/2018 2:15pm
Overcast
Overcast
 Wind from E
Wind: E 6 mph , 9 km/h
Temperature: 72°F , 22°C
Dew Point: 63°F , 17°C
Humidity: 73%
Barometer: 29.96 inHg , 1014.6 hPa
Clouds: Overcast
Visibility: 10 miles , 16 km
Cloud details: Mostly cloudy 2000 ft
Overcast 4700 ft
2018/09/24 19:15 KVYS 241915Z AUTO 10005KT 10SM BKN020 OVC047 22/17 A2996 RMK AO2 T02230167
KAAA - Lincoln, Illinois, USA
Distance from station: SSE 48mi, 77km
Updated: 09/24/2018 2:15pm
Overcast
Overcast
 Wind from calm
Wind: Calm
Temperature: 77°F , 25°C
Dew Point: 66°F , 19°C
Humidity: 69%
Barometer: 29.93 inHg , 1013.5 hPa
Clouds: Overcast
Visibility: 10 miles , 16 km
Cloud details: Overcast 3000 ft
2018/09/24 19:15 KAAA 241915Z AUTO 00000KT 10SM OVC030 25/19 A2993 RMK AO2 T02490188
 
KPNT - Pontiac, Illinois, USA
Distance from station: E 53mi, 85km
Updated: 09/24/2018 2:15pm
Overcast
Overcast
 Wind from E
Wind: E 7 mph , 11 km/h
Temperature: 70°F , 21°C
Dew Point: 66°F , 19°C
Humidity: 88%
Barometer: 29.97 inHg , 1014.9 hPa
Clouds: Overcast
Visibility: 10 miles , 16 km
Cloud details: Mostly cloudy 1400 ft
Overcast 2700 ft
2018/09/24 19:15 KPNT 241915Z AUTO 09006KT 10SM BKN014 OVC027 21/19 A2997 RMK AO2 T02100191
KMQB - Macomb Muni, Illinois, USA
Distance from station: WSW 58mi, 93km
Updated: 09/24/2018 2:15pm
Partly cloudy
Partly cloudy
 Wind from SE
Wind: SE 5 mph , 7 km/h
Temperature: 77°F , 25°C
Dew Point: 63°F , 17°C
Humidity: 61%
Barometer: 29.93 inHg , 1013.5 hPa
Clouds: Partly cloudy
Visibility: 10 miles , 16 km
Cloud details: Partly cloudy 2500 ft
2018/09/24 19:15 KMQB 241915Z AUTO 13004KT 10SM SCT025 25/17 A2993 RMK AO2 T02480171
 
KMLI - Moline/Quad City, Illinois, USA
Distance from station: NW 64mi, 103km
Updated: 09/24/2018 2:16pm
Haze, Partly cloudy
Haze, Partly cloudy
 Wind from SSE
Wind: SSE 8 mph , 13 km/h
Temperature: 75°F , 24°C
Dew Point: 63°F , 17°C
Humidity: 65%
Barometer: 29.91 inHg , 1012.9 hPa
Summary: Haze
Clouds: Partly cloudy
Visibility: 6 miles , 10 km
Cloud details: Partly cloudy 2900 ft
Partly cloudy 3400 ft
2018/09/24 19:16 KMLI 241916Z 15007KT 6SM HZ SCT029 SCT034 24/17 A2991 RMK AO2 T02390167
KSQI - Sterling Rockfal, Illinois, USA
Distance from station: N 64mi, 103km
Updated: 09/24/2018 1:56pm
Overcast
Overcast
 Wind from SE
Wind: SE 9 mph , 15 km/h
Temperature: 73°F , 23°C
Dew Point: 63°F , 17°C
Humidity: 69%
Barometer: 29.95 inHg , 1014.2 hPa
Clouds: Overcast
Visibility: 10 miles , 16 km
Cloud details: Overcast 2400 ft
2018/09/24 18:56 KSQI 241856Z AUTO 13008KT 10SM OVC024 23/17 A2995 RMK AO2 SLP158 T02280167 PNO $
 
KSPI - Springfield, Illinois, USA
Distance from station: S 67mi, 108km
Updated: 09/24/2018 1:52pm
Overcast
Overcast
 Wind from SE
Wind: SE 7 mph , 11 km/h
Temperature: 75°F , 24°C
Dew Point: 66°F , 19°C
Humidity: 74%
Barometer: 29.93 inHg , 1013.5 hPa
Clouds: Overcast
Visibility: 10 miles , 16 km
Cloud details: Few Clouds 2200 ft
Overcast 3400 ft
2018/09/24 18:52 KSPI 241852Z 13006KT 10SM FEW022 OVC034 24/19 A2993 RMK AO2 SLP134 T02440194
KDVN - Davenport/Quad C, Iowa, USA
Distance from station: NW 74mi, 120km
Updated: 09/24/2018 1:52pm
Overcast
Overcast
 Wind from SE
Wind: SE 13 mph , 20 km/h
Temperature: 73°F , 23°C
Dew Point: 61°F , 16°C
Humidity: 65%
Barometer: 29.94 inHg , 1013.9 hPa
Clouds: Overcast
Visibility: 10 miles , 16 km
Cloud details: Overcast 3100 ft
2018/09/24 18:52 KDVN 241852Z AUTO 14011KT 10SM OVC031 23/16 A2994 RMK AO2 SLP135 T02330156